createdAt,value
2024-05-09T00:00:56.748Z,100799.56
2024-05-09T00:03:29.032Z,100710.09
2024-05-09T00:05:58.636Z,100698.75
2024-05-09T00:08:28.282Z,100941.84
2024-05-09T00:10:57.959Z,100899.31
2024-05-09T00:13:27.549Z,100810.75
2024-05-09T00:15:57.045Z,100806.41
2024-05-09T00:18:29.360Z,101013.13
2024-05-09T00:20:59.033Z,100825.00
2024-05-09T00:23:29.140Z,100882.78
2024-05-09T00:25:58.845Z,100872.19
2024-05-09T00:28:28.439Z,100875.63
2024-05-09T00:30:57.987Z,100850.25
2024-05-09T00:33:30.908Z,100986.84
2024-05-09T00:36:00.568Z,100722.50
2024-05-09T00:38:30.237Z,100831.22
2024-05-09T00:40:59.998Z,100678.91
2024-05-09T00:43:29.596Z,100768.91
2024-05-09T00:45:59.179Z,100692.75
2024-05-09T00:48:31.558Z,100697.34
2024-05-09T00:51:01.238Z,101029.22
2024-05-09T00:53:30.909Z,100820.88
2024-05-09T00:56:00.561Z,100846.09
2024-05-09T00:58:30.624Z,100955.53
2024-05-09T01:01:00.563Z,100825.25
2024-05-09T01:03:33.136Z,100854.84
2024-05-09T01:06:03.049Z,100981.88
2024-05-09T01:08:32.916Z,100893.56
2024-05-09T01:11:02.703Z,100888.94
2024-05-09T01:13:32.283Z,100798.94
2024-05-09T01:16:01.784Z,100881.22
2024-05-09T01:18:34.115Z,100813.81
2024-05-09T01:21:04.433Z,100950.28
2024-05-09T01:23:37.067Z,100791.94
2024-05-09T01:26:07.070Z,100760.44
2024-05-09T01:28:36.794Z,100814.81
2024-05-09T01:31:06.628Z,100707.97
2024-05-09T01:33:36.421Z,100890.94
2024-05-09T01:36:06.466Z,100697.47
2024-05-09T01:38:38.757Z,100641.53
2024-05-09T01:41:08.725Z,100669.56
2024-05-09T01:43:38.353Z,100837.66
2024-05-09T01:46:07.961Z,100833.28
2024-05-09T01:48:37.779Z,100593.53
2024-05-09T01:51:08.074Z,100799.09
2024-05-09T01:53:40.534Z,100786.84
2024-05-09T01:56:11.020Z,100838.44
2024-05-09T01:58:40.679Z,100752.63
2024-05-09T02:01:10.409Z,100831.50
2024-05-09T02:03:40.176Z,100858.53
2024-05-09T02:06:10.180Z,100841.88
2024-05-09T02:08:42.597Z,101033.03
2024-05-09T02:11:12.437Z,100757.06
2024-05-09T02:13:42.280Z,100714.16
2024-05-09T02:16:14.984Z,100789.44
2024-05-09T02:18:44.885Z,101007.56
2024-05-09T02:21:14.530Z,100742.22
2024-05-09T02:23:46.791Z,100702.81
2024-05-09T02:26:16.528Z,100907.78
2024-05-09T02:28:46.209Z,100874.41
2024-05-09T02:31:15.968Z,100943.53
2024-05-09T02:33:43.367Z,100942.69
2024-05-09T02:36:13.074Z,100780.72
2024-05-09T02:38:40.022Z,100820.13
2024-05-09T02:41:12.341Z,100803.59
2024-05-09T02:43:39.398Z,100775.56
2024-05-09T02:46:09.674Z,100794.84
2024-05-09T02:48:36.853Z,100782.56
2024-05-09T02:51:07.303Z,100765.09
2024-05-09T02:53:34.518Z,100602.38
2024-05-09T02:56:04.338Z,100942.72
2024-05-09T02:58:36.682Z,100647.81
2024-05-09T03:01:03.808Z,100872.78
2024-05-09T03:03:33.811Z,100684.59
2024-05-09T03:06:02.063Z,100493.97
2024-05-09T03:08:31.819Z,100759.78
2024-05-09T03:10:59.030Z,100738.88
2024-05-09T03:13:28.733Z,100560.41
2024-05-09T03:15:59.808Z,100834.34
2024-05-09T03:18:29.622Z,100746.75
2024-05-09T03:20:56.738Z,100835.22
2024-05-09T03:23:26.745Z,100688.09
2024-05-09T03:25:54.415Z,100772.16
2024-05-09T03:28:24.157Z,100865.88
2024-05-09T03:30:51.265Z,100885.13
2024-05-09T03:33:24.038Z,100775.66
2024-05-09T03:35:51.283Z,100912.22
2024-05-09T03:38:21.037Z,100946.41
2024-05-09T03:40:51.603Z,100641.75
2024-05-09T03:43:18.918Z,100832.56
2024-05-09T03:45:50.282Z,100461.59
2024-05-09T03:48:17.589Z,100997.34
2024-05-09T03:50:50.905Z,100805.41
2024-05-09T03:53:18.064Z,100750.25
2024-05-09T03:55:47.888Z,100558.69
2024-05-09T03:58:14.937Z,100942.09
2024-05-09T04:00:44.795Z,100933.38
2024-05-09T04:03:13.179Z,100687.25
2024-05-09T04:05:44.203Z,100594.47
2024-05-09T04:08:14.575Z,100820.28
2024-05-09T04:10:44.561Z,100949.97
2024-05-09T04:13:11.546Z,100751.16
2024-05-09T04:15:41.198Z,100705.66
2024-05-09T04:18:08.474Z,100823.84
2024-05-09T04:20:40.621Z,100848.31
2024-05-09T04:23:10.334Z,100690.72
2024-05-09T04:25:44.577Z,100720.50
2024-05-09T04:28:12.222Z,100800.16
2024-05-09T04:30:42.611Z,100741.50
2024-05-09T04:33:12.174Z,100732.75
2024-05-09T04:35:44.976Z,100812.41
2024-05-09T04:38:12.568Z,100768.66
2024-05-09T04:40:45.075Z,100743.28
2024-05-09T04:43:14.471Z,100834.31
2024-05-09T04:45:44.209Z,100814.19
2024-05-09T04:48:11.573Z,100712.59
2024-05-09T04:50:41.520Z,100848.38
2024-05-09T04:53:10.373Z,100730.13
2024-05-09T04:55:40.982Z,100887.69
2024-05-09T04:58:11.612Z,100886.00
2024-05-09T05:00:41.812Z,100744.13
2024-05-09T05:03:12.865Z,100592.78
2024-05-09T05:05:45.953Z,100566.53
2024-05-09T05:08:14.021Z,100961.31
2024-05-09T05:10:44.036Z,100921.94
2024-05-09T05:13:18.388Z,100764.28
2024-05-09T05:15:48.812Z,100802.72
2024-05-09T05:18:16.263Z,100816.72
2024-05-09T05:20:46.191Z,100762.38
2024-05-09T05:23:16.713Z,100764.22
2024-05-09T05:25:44.201Z,100765.91
2024-05-09T05:28:17.241Z,100775.53
2024-05-09T05:30:44.454Z,100657.38
2024-05-09T05:33:17.143Z,100783.34
2024-05-09T05:35:44.282Z,100685.38
2024-05-09T05:38:14.114Z,100654.75
2024-05-09T05:40:41.402Z,100820.88
2024-05-09T05:43:11.566Z,100780.75
2024-05-09T05:45:41.390Z,100918.09
2024-05-09T05:48:11.555Z,100937.31
2024-05-09T05:50:39.026Z,100727.91
2024-05-09T05:53:09.507Z,100686.59
2024-05-09T05:55:37.103Z,100878.53
2024-05-09T05:58:07.097Z,100944.97
2024-05-09T06:00:38.671Z,100934.88
2024-05-09T06:03:14.565Z,100832.91
2024-05-09T06:05:43.779Z,100690.16
2024-05-09T06:08:14.335Z,100937.81
2024-05-09T06:10:43.781Z,100828.13
2024-05-09T06:13:14.387Z,100998.91
2024-05-09T06:15:41.883Z,100843.19
2024-05-09T06:18:14.685Z,100876.28
2024-05-09T06:20:43.432Z,100665.41
2024-05-09T06:23:14.295Z,100659.03
2024-05-09T06:25:42.587Z,100826.19
2024-05-09T06:28:12.550Z,100835.81
2024-05-09T06:30:42.480Z,100764.13
2024-05-09T06:33:16.676Z,100722.03
2024-05-09T06:35:44.281Z,100718.88
2024-05-09T06:38:14.188Z,100642.16
2024-05-09T06:40:44.034Z,100793.19
2024-05-09T06:43:16.761Z,100650.69
2024-05-09T06:45:47.187Z,100766.63
2024-05-09T06:48:20.736Z,100745.00
2024-05-09T06:50:48.388Z,100765.22
2024-05-09T06:53:18.708Z,100717.13
2024-05-09T06:55:45.795Z,100672.88
2024-05-09T06:58:15.458Z,100841.03
2024-05-09T07:01:05.873Z,100948.66
2024-05-09T07:03:38.300Z,100860.38
2024-05-09T07:06:05.743Z,100754.25
2024-05-09T07:08:35.692Z,100831.41
2024-05-09T07:11:02.957Z,100952.31
2024-05-09T07:13:32.798Z,100886.56
2024-05-09T07:15:59.992Z,100768.38
2024-05-09T07:18:29.903Z,100750.19
2024-05-09T07:20:59.787Z,100694.28
2024-05-09T07:23:29.507Z,100666.06
2024-05-09T07:25:57.861Z,100819.94
2024-05-09T07:28:27.581Z,100731.47
2024-05-09T07:30:54.594Z,100711.31
2024-05-09T07:33:24.978Z,100968.94
2024-05-09T07:35:52.357Z,100722.41
2024-05-09T07:38:24.808Z,100869.91
2024-05-09T07:40:51.800Z,100773.50
2024-05-09T07:43:22.498Z,100911.75
2024-05-09T07:45:53.686Z,100858.75
2024-05-09T07:52:39.119Z,100852.41
2024-05-09T07:53:53.283Z,100787.28
2024-05-09T07:56:24.079Z,100820.28
2024-05-09T07:58:55.770Z,100678.06
2024-05-09T08:01:28.891Z,100640.13
2024-05-09T08:03:58.759Z,100589.66
2024-05-09T08:06:25.877Z,100818.06
2024-05-09T08:09:02.661Z,100913.44
2024-05-09T08:11:29.970Z,100900.59
2024-05-09T08:13:59.640Z,100847.56
2024-05-09T08:16:26.652Z,100770.81
2024-05-09T08:18:56.390Z,100815.34
2024-05-09T08:21:23.607Z,100682.81
2024-05-09T08:23:53.199Z,100694.25
2024-05-09T08:26:22.757Z,100847.50
2024-05-09T08:28:52.394Z,100851.38
2024-05-09T08:31:19.488Z,100809.44
2024-05-09T08:33:51.033Z,100769.91
2024-05-09T08:36:18.042Z,100784.75
2024-05-09T08:38:47.532Z,100830.38
2024-05-09T08:41:35.306Z,100774.19
2024-05-09T08:44:04.807Z,100755.91
2024-05-09T08:46:31.768Z,100893.94
2024-05-09T08:49:01.603Z,100717.63
2024-05-09T08:51:28.753Z,100810.94
2024-05-09T08:53:58.360Z,100757.47
2024-05-09T08:56:27.457Z,100800.94
2024-05-09T08:59:00.416Z,100883.84
2024-05-09T09:01:30.871Z,100813.16
2024-05-09T09:04:00.853Z,100885.69
2024-05-09T09:06:27.782Z,100882.78
2024-05-09T09:08:57.330Z,100880.66
2024-05-09T09:11:24.380Z,100871.13
2024-05-09T09:13:53.894Z,100882.28
2024-05-09T09:16:32.172Z,100874.50
2024-05-09T09:19:03.095Z,100873.59
2024-05-09T09:21:30.117Z,100840.09
2024-05-09T09:23:59.667Z,100882.06
2024-05-09T09:26:33.195Z,100870.94
2024-05-09T09:29:00.878Z,100836.06
2024-05-09T09:31:33.161Z,100872.34
2024-05-09T09:34:06.904Z,100877.72
2024-05-09T09:36:36.606Z,100874.13
2024-05-09T09:39:03.458Z,100877.22
2024-05-09T09:41:32.945Z,100853.38
2024-05-09T09:43:59.771Z,100839.84
2024-05-09T09:46:29.489Z,100877.72
2024-05-09T09:48:59.051Z,100866.25
2024-05-09T09:51:28.613Z,100851.34
2024-05-09T09:53:55.498Z,100857.81
2024-05-09T09:56:25.016Z,100820.47
2024-05-09T09:58:51.823Z,100854.66
2024-05-09T10:01:21.342Z,100865.13
2024-05-09T10:03:48.420Z,100864.16
2024-05-09T10:06:20.624Z,100863.41
2024-05-09T10:08:47.451Z,100870.84
2024-05-09T10:11:17.012Z,100857.84
2024-05-09T10:13:43.917Z,100852.16
2024-05-09T10:16:14.020Z,100863.75
2024-05-09T10:18:41.451Z,100852.19
2024-05-09T10:21:23.270Z,100850.97
2024-05-09T10:23:59.812Z,100849.25
2024-05-09T10:26:35.708Z,100842.44
2024-05-09T10:29:11.147Z,100833.66
2024-05-09T10:31:41.156Z,100834.00
2024-05-09T10:34:08.071Z,100840.63
2024-05-09T10:36:44.327Z,100834.84
2024-05-09T10:39:13.370Z,100835.34
2024-05-09T10:41:42.898Z,100833.59
2024-05-09T10:44:14.847Z,100831.78
2024-05-09T10:46:45.291Z,100831.78
2024-05-09T10:49:13.028Z,100827.53
2024-05-09T10:51:46.528Z,100824.94
2024-05-09T10:54:13.502Z,100822.03
2024-05-09T10:56:43.255Z,100822.16
2024-05-09T10:59:10.144Z,100815.50
2024-05-09T11:01:39.709Z,100804.31
2024-05-09T11:04:06.723Z,100808.28
2024-05-09T11:06:38.137Z,100816.63
2024-05-09T11:09:07.762Z,100804.88
2024-05-09T11:11:37.236Z,100810.00
2024-05-09T11:14:11.935Z,100809.00
2024-05-09T11:16:41.380Z,100803.72
2024-05-09T11:19:12.220Z,100803.59
2024-05-09T11:21:41.749Z,100803.63
2024-05-09T11:24:11.799Z,100806.97
2024-05-09T11:26:41.362Z,100782.50
2024-05-09T11:29:08.256Z,100790.38
2024-05-09T11:31:48.111Z,100794.78
2024-05-09T11:34:15.212Z,100786.97
2024-05-09T11:36:44.727Z,100784.59
2024-05-09T11:39:14.811Z,100762.56
2024-05-09T11:41:44.375Z,100788.13
2024-05-09T11:44:11.498Z,100781.94
2024-05-09T11:46:41.959Z,100775.69
2024-05-09T11:49:09.547Z,100753.06
2024-05-09T11:51:39.149Z,100775.16
2024-05-09T11:54:06.061Z,100765.28
2024-05-09T11:56:38.104Z,100764.50
2024-05-09T11:59:04.944Z,100765.84
2024-05-09T12:01:34.440Z,100756.28
2024-05-09T12:04:01.689Z,100758.25
2024-05-09T12:06:32.040Z,100754.28
2024-05-09T12:08:58.967Z,100749.81
2024-05-09T12:11:28.457Z,100750.56
2024-05-09T12:13:57.943Z,100748.72
2024-05-09T12:16:27.540Z,100746.38
2024-05-09T12:18:54.480Z,100741.50
2024-05-09T12:21:24.002Z,100703.88
2024-05-09T12:23:50.839Z,100732.31
2024-05-09T12:26:20.269Z,100731.47
2024-05-09T12:28:47.127Z,100730.34
2024-05-09T12:31:19.292Z,100733.63
2024-05-09T12:33:46.181Z,100728.09
2024-05-09T12:36:15.793Z,100724.38
2024-05-09T12:38:42.647Z,100728.41
2024-05-09T12:41:12.838Z,100721.78
2024-05-09T12:43:39.709Z,100721.56
2024-05-09T12:46:09.344Z,100715.34
2024-05-09T12:48:38.968Z,100718.03
2024-05-09T12:51:08.734Z,100719.16
2024-05-09T12:53:36.158Z,100713.53
2024-05-09T12:56:07.219Z,100710.47
2024-05-09T12:58:35.773Z,100693.09
2024-05-09T13:01:05.283Z,100709.94
2024-05-09T13:03:32.350Z,100706.97
2024-05-09T13:06:05.536Z,100709.56
2024-05-09T13:08:32.388Z,100701.03
2024-05-09T13:11:01.838Z,100685.34
2024-05-09T13:13:29.173Z,100706.69
2024-05-09T13:15:58.797Z,100704.84
2024-05-09T13:18:25.778Z,100677.28
2024-05-09T13:20:55.248Z,100691.78
2024-05-09T13:23:24.785Z,100685.75
2024-05-09T13:25:54.291Z,100685.53
2024-05-09T13:28:22.675Z,100682.50
2024-05-09T13:30:52.235Z,100638.78
2024-05-09T13:33:19.250Z,100678.72
2024-05-09T13:38:43.375Z,100679.41
2024-05-09T13:41:11.610Z,100668.53
2024-05-09T13:43:41.456Z,100665.72
2024-05-09T13:46:08.574Z,100676.03
2024-05-09T13:48:38.266Z,100626.47
2024-05-09T13:51:08.178Z,100667.19
2024-05-09T13:53:37.674Z,100654.09
2024-05-09T13:56:08.890Z,100660.75
2024-05-09T13:58:38.413Z,100645.81
2024-05-09T14:01:05.591Z,100653.00
2024-05-09T14:03:35.402Z,100647.53
2024-05-09T14:06:02.480Z,100658.19
2024-05-09T14:08:32.082Z,100642.59
2024-05-09T14:10:59.149Z,100618.47
2024-05-09T14:13:31.378Z,100644.34
2024-05-09T14:15:58.438Z,100644.75
2024-05-09T14:18:28.125Z,100646.38
2024-05-09T14:20:54.996Z,100631.34
2024-05-09T14:23:25.330Z,100643.69
2024-05-09T14:25:53.398Z,100589.66
2024-05-09T14:28:23.222Z,100631.06
2024-05-09T14:30:53.277Z,100600.28
2024-05-09T14:33:26.571Z,100584.59
2024-05-09T14:35:53.910Z,100624.03
2024-05-09T14:38:23.459Z,100631.28
2024-05-09T14:40:50.753Z,100623.59
2024-05-09T14:43:20.787Z,100637.66
2024-05-09T14:45:47.848Z,100613.09
2024-05-09T14:48:20.273Z,100559.56
2024-05-09T14:50:47.677Z,100608.22
2024-05-09T14:53:17.522Z,100600.09
2024-05-09T14:55:44.686Z,100608.53
2024-05-09T14:58:14.244Z,100554.38
2024-05-09T15:00:45.727Z,100589.09
2024-05-09T15:03:22.559Z,100599.22
2024-05-09T15:05:50.575Z,100604.22
2024-05-09T15:08:20.572Z,100603.38
2024-05-09T15:10:49.855Z,100597.06
2024-05-09T15:13:20.150Z,100593.50
2024-05-09T15:15:47.197Z,100590.03
2024-05-09T15:18:17.050Z,100547.84
2024-05-09T15:20:46.901Z,100588.06
2024-05-09T15:23:16.568Z,100545.91
2024-05-09T15:25:44.715Z,100564.56
2024-05-09T15:28:14.328Z,100584.25
2024-05-09T15:30:45.446Z,100570.00
2024-05-09T15:33:16.319Z,100578.72
2024-05-09T15:35:44.399Z,100575.28
2024-05-09T15:38:17.854Z,100574.59
2024-05-09T15:40:45.323Z,100569.50
2024-05-09T15:43:14.995Z,100579.53
2024-05-09T15:45:42.220Z,100573.47
2024-05-09T15:48:12.024Z,100565.00
2024-05-09T15:50:41.459Z,100575.13
2024-05-09T15:53:13.140Z,100569.25
2024-05-09T15:55:43.289Z,100561.63
2024-05-09T15:58:13.330Z,100538.59
2024-05-09T16:00:44.864Z,100557.75
2024-05-09T16:03:14.293Z,100560.91
2024-05-09T16:05:46.829Z,100562.13
2024-05-09T16:08:14.602Z,100569.63
2024-05-09T16:10:48.096Z,100566.50
2024-05-09T16:13:15.748Z,100563.31
2024-05-09T16:15:46.197Z,100575.31
2024-05-09T16:18:13.384Z,100570.81
2024-05-09T16:20:44.881Z,100528.53
2024-05-09T16:23:13.428Z,100556.03
2024-05-09T16:25:47.933Z,100556.88
2024-05-09T16:28:15.341Z,100560.44
2024-05-09T16:30:45.040Z,100526.13
2024-05-09T16:33:12.552Z,100550.31
2024-05-09T16:35:42.281Z,100555.34
2024-05-09T16:38:09.271Z,100566.94
2024-05-09T16:40:40.966Z,100557.25
2024-05-09T16:43:12.028Z,100562.41
2024-05-09T16:45:43.782Z,100550.94
2024-05-09T16:48:11.432Z,100555.50
2024-05-09T16:50:41.035Z,100547.72
2024-05-09T16:53:08.484Z,100557.81
2024-05-09T16:55:38.495Z,100557.69
2024-05-09T16:58:07.750Z,100548.28
2024-05-09T17:00:43.253Z,100542.50
2024-05-09T17:03:13.308Z,100548.72
2024-05-09T17:05:45.712Z,100545.38
2024-05-09T17:08:16.307Z,100552.69
2024-05-09T17:10:46.542Z,100560.72
2024-05-09T17:13:16.273Z,100553.81
2024-05-09T17:15:48.807Z,100552.41
2024-05-09T17:18:19.578Z,100546.34
2024-05-09T17:20:49.193Z,100551.09
2024-05-09T17:23:16.184Z,100520.53
2024-05-09T17:25:45.928Z,100502.88
2024-05-09T17:28:12.956Z,100531.59
2024-05-09T17:30:43.185Z,100547.22
2024-05-09T17:33:13.492Z,100548.34
2024-05-09T17:35:45.913Z,100546.59
2024-05-09T17:38:13.121Z,100543.84
2024-05-09T17:40:42.795Z,100515.13
2024-05-09T17:43:10.766Z,100538.97
2024-05-09T17:45:41.678Z,100542.59
2024-05-09T17:48:10.492Z,100541.94
2024-05-09T17:50:46.348Z,100535.31
2024-05-09T17:53:13.244Z,100534.41
2024-05-09T17:55:42.823Z,100536.22
2024-05-09T17:58:10.301Z,100533.69
2024-05-09T18:00:42.158Z,100535.53
2024-05-09T18:03:12.015Z,100547.16
2024-05-09T18:05:45.829Z,100435.63
2024-05-09T18:08:13.538Z,100539.47
2024-05-09T18:10:44.360Z,100541.31
2024-05-09T18:13:13.752Z,100552.19
2024-05-09T18:15:45.084Z,100537.47
2024-05-09T18:18:12.582Z,100543.59
2024-05-09T18:20:46.210Z,100541.94
2024-05-09T18:23:14.827Z,100521.78
2024-05-09T18:25:45.791Z,100489.47
2024-05-09T18:28:13.077Z,100543.34
2024-05-09T18:30:43.771Z,100533.38
2024-05-09T18:33:11.665Z,100539.75
2024-05-09T18:35:45.581Z,100544.31
2024-05-09T18:38:17.890Z,100553.34
2024-05-09T18:40:49.274Z,100547.31
2024-05-09T18:43:20.375Z,100531.63
2024-05-09T18:45:54.136Z,100563.78
2024-05-09T18:48:22.045Z,100564.06
2024-05-09T18:50:54.403Z,100552.06
2024-05-09T18:53:21.444Z,100551.19
2024-05-09T18:55:51.072Z,100560.41
2024-05-09T18:58:18.096Z,100549.56
2024-05-09T19:00:50.352Z,100560.97
2024-05-09T19:03:18.776Z,100570.19
2024-05-09T19:05:48.744Z,100567.88
2024-05-09T19:08:18.398Z,100576.22
2024-05-09T19:10:48.153Z,100533.84
2024-05-09T19:13:15.628Z,100538.53
2024-05-09T19:15:45.438Z,100567.56
2024-05-09T19:18:13.253Z,100569.78
2024-05-09T19:20:43.900Z,100568.34
2024-05-09T19:23:12.410Z,100554.19
2024-05-09T19:25:44.734Z,100501.22
2024-05-09T19:28:11.718Z,100584.06
2024-05-09T19:30:42.814Z,100574.81
2024-05-09T19:33:11.279Z,100590.75
2024-05-09T19:38:16.722Z,100581.63
2024-05-09T19:40:46.341Z,100595.06
2024-05-09T19:43:16.142Z,100591.63
2024-05-09T19:45:43.598Z,100598.06
2024-05-09T19:48:13.339Z,100601.06
2024-05-09T19:50:43.726Z,100594.00
2024-05-09T19:53:14.546Z,100617.25
2024-05-09T19:55:41.694Z,100592.84
2024-05-09T19:58:13.916Z,100609.66
2024-05-09T20:00:43.059Z,100600.88
2024-05-09T20:03:14.488Z,100589.59
2024-05-09T20:05:42.497Z,100554.25
2024-05-09T20:08:12.090Z,100600.47
2024-05-09T20:10:39.075Z,100603.25
2024-05-09T20:13:09.040Z,100598.09
2024-05-09T20:15:39.801Z,100605.41
2024-05-09T20:18:09.877Z,100613.56
2024-05-09T20:20:40.925Z,100614.63
2024-05-09T20:23:12.822Z,100606.81
2024-05-09T20:25:39.958Z,100615.03
2024-05-09T20:28:11.725Z,100605.38
2024-05-09T20:30:42.393Z,100616.31
2024-05-09T20:33:12.404Z,100606.78
2024-05-09T20:35:39.477Z,100614.09
2024-05-09T20:38:08.948Z,100609.09
2024-05-09T20:40:38.673Z,100610.97
2024-05-09T20:43:09.961Z,100614.75
2024-05-09T20:45:37.575Z,100615.97
2024-05-09T20:48:11.351Z,100610.03
2024-05-09T20:50:41.379Z,100609.38
2024-05-09T20:53:14.784Z,100599.94
2024-05-09T20:55:42.324Z,100610.47
2024-05-09T20:58:12.342Z,100616.75
2024-05-09T21:00:43.101Z,100611.53
2024-05-09T21:03:17.957Z,100604.69
2024-05-09T21:05:45.576Z,100607.34
2024-05-09T21:08:15.354Z,100603.94
2024-05-09T21:10:42.407Z,100609.38
2024-05-09T21:13:12.078Z,100579.88
2024-05-09T21:15:39.088Z,100613.84
2024-05-09T21:18:08.817Z,100613.03
2024-05-09T21:20:38.602Z,100612.31
2024-05-09T21:23:08.276Z,100615.97
2024-05-09T21:25:35.210Z,100615.25
2024-05-09T21:28:04.837Z,100618.19
2024-05-09T21:30:40.400Z,100614.09
2024-05-09T21:33:14.083Z,100615.00
2024-05-09T21:35:44.996Z,100607.53
2024-05-09T21:38:16.036Z,100607.94
2024-05-09T21:40:43.095Z,100621.03
2024-05-09T21:43:12.728Z,100621.16
2024-05-09T21:45:39.913Z,100621.16
2024-05-09T21:48:10.559Z,100618.69
2024-05-09T21:50:41.100Z,100620.78
2024-05-09T21:53:14.435Z,100608.72
2024-05-09T21:55:41.726Z,100622.91
2024-05-09T21:58:11.395Z,100621.06
2024-05-09T22:00:40.090Z,100614.06
2024-05-09T22:03:10.935Z,100612.31
2024-05-09T22:05:41.908Z,100607.13
2024-05-09T22:08:14.430Z,100604.53
2024-05-09T22:10:41.522Z,100608.22
2024-05-09T22:13:11.199Z,100594.28
2024-05-09T22:15:39.837Z,100603.00
2024-05-09T22:18:11.180Z,100603.00
2024-05-09T22:20:44.646Z,100590.00
2024-05-09T22:23:18.187Z,100606.59
2024-05-09T22:25:45.036Z,100604.88
2024-05-09T22:28:16.150Z,100606.69
2024-05-09T22:30:45.749Z,100612.00
2024-05-09T22:33:15.847Z,100609.56
2024-05-09T22:35:42.960Z,100610.25
2024-05-09T22:38:12.459Z,100503.38
2024-05-09T22:40:47.715Z,100620.06
2024-05-09T22:43:21.722Z,100612.31
2024-05-09T22:45:50.721Z,100614.06
2024-05-09T22:48:20.704Z,100622.94
2024-05-09T22:50:47.634Z,100625.56
2024-05-09T22:53:17.208Z,100631.75
2024-05-09T22:55:46.722Z,100624.72
2024-05-09T22:58:16.420Z,100627.38
2024-05-09T23:00:43.475Z,100619.50
2024-05-09T23:03:14.085Z,100616.13
2024-05-09T23:05:40.996Z,100627.47
2024-05-09T23:08:10.973Z,100613.47
2024-05-09T23:10:38.458Z,100619.63
2024-05-09T23:13:10.919Z,100616.25
2024-05-09T23:15:38.103Z,100620.72
2024-05-09T23:18:08.756Z,100604.25
2024-05-09T23:20:40.026Z,100610.47
2024-05-09T23:23:07.453Z,100607.91
2024-05-09T23:25:37.147Z,100607.97
2024-05-09T23:28:04.707Z,100610.72
2024-05-09T23:30:39.914Z,100604.81
2024-05-09T23:33:09.184Z,100607.34
2024-05-09T23:35:39.025Z,100602.97
2024-05-09T23:38:05.858Z,100603.84
2024-05-09T23:40:39.561Z,100589.09
2024-05-09T23:43:08.620Z,100601.22
2024-05-09T23:45:41.522Z,100594.22
2024-05-09T23:48:09.178Z,100581.97
2024-05-09T23:50:40.378Z,100588.91
2024-05-09T23:53:09.228Z,100586.34
2024-05-09T23:55:39.745Z,100571.63
2024-05-09T23:58:06.837Z,100586.66
